Airfield :
LOGIN :

Register | Disclaimer

   EN    FR    IT 

 










Legend :    VFR   Marginal VFR   IFR   Intensive IFR   Very Intensive IFR
Visi :
Ceiling :
>= 8 km
>= 3000ft
5 to 8 km
1000 to 3000 ft
1500m to 5 km
500 to 1000 ft
800 to 1500m
200 to 500 ft
< 800m
< 200 ft
Symbols :   Thunderstorms  Fog  Heavy snow  Heavy precipitations  Wind > 20 kt
SIGMETs :     Misc.  Thunderstorms  Icing  Turbulence  Mountain Waves  Volcanic Ashes






- Airport Elevation : 17 ft
- IATA code : MPL


LFMT - Montpellier Méditerranée

CURRENT METAR :
  • 220000Z AUTO 30008KT CAVOK 08/M03 Q1016 NOSIG

EXPIRED METARs :
  • 212330Z AUTO 34006KT CAVOK 06/M02 Q1017 NOSIG
  • 212300Z AUTO 32008KT CAVOK 07/M03 Q1017 NOSIG
  • 212230Z AUTO 34005KT CAVOK 09/M03 Q1017 NOSIG
  • 212200Z AUTO 35014KT CAVOK 09/M03 Q1017 NOSIG
  • 212130Z AUTO 34011KT CAVOK 09/M03 Q1017 NOSIG
  • 212100Z AUTO 34009KT CAVOK 09/M03 Q1017 NOSIG
  • 212030Z AUTO 34010KT CAVOK 08/M03 Q1016 NOSIG
  • 212000Z AUTO 35012KT CAVOK 10/M04 Q1016 TEMPO 36018G28KT
  • 211930Z AUTO 35013KT CAVOK 10/M04 Q1016 TEMPO 36018G28KT

TAF TAF LFMT
Valid from the 21 at 21:00 until the 22 at 21:00 UTC


212000Z 2121/2221 33012KT CAVOK
BECMG 2208/2210 36020G30KT
ATIS : +33 4 67 13 11 70



MET'MAP, your aeronautical weather chart ! - Copyright ORBIFLY December 2007 - Disclaimer

ORBIFLY MET'MAP TEAM :

Programming & Development : Alexandra Zaïnal
Original concept : Baudouin d'Aumeries
Technical & hardware support : Manuel Goepfert
Assistance : Marc-Olivier Méhu




SOURCES & CREDITS :

   NOAA